createdAt,value
2023-02-14T00:02:27.290Z,-1.13
2023-02-14T00:05:00.872Z,-1.14
2023-02-14T00:07:34.233Z,-1.16
2023-02-14T00:10:08.832Z,-1.12
2023-02-14T00:12:43.804Z,-1.05
2023-02-14T00:15:25.534Z,-1.26
2023-02-14T00:18:00.483Z,-1.38
2023-02-14T00:20:33.829Z,-1.50
2023-02-14T00:23:07.210Z,-1.50
2023-02-14T00:25:40.360Z,-1.46
2023-02-14T00:28:14.949Z,-1.40
2023-02-14T00:30:48.901Z,-1.45
2023-02-14T00:33:22.222Z,-1.44
2023-02-14T00:35:55.793Z,-1.43
2023-02-14T00:38:28.876Z,-1.10
2023-02-14T00:41:02.172Z,-1.47
2023-02-14T00:43:36.803Z,-1.19
2023-02-14T00:46:09.971Z,-1.42
2023-02-14T00:48:43.492Z,-1.35
2023-02-14T00:51:18.398Z,-1.34
2023-02-14T00:53:52.497Z,-1.29
2023-02-14T00:56:25.800Z,-1.49
2023-02-14T00:59:00.354Z,-1.42
2023-02-14T01:01:33.557Z,-1.30
2023-02-14T01:04:07.693Z,-1.27
2023-02-14T01:06:41.162Z,-1.27
2023-02-14T01:09:14.791Z,-1.41
2023-02-14T01:11:48.805Z,-1.35
2023-02-14T01:14:23.952Z,-1.35
2023-02-14T01:16:57.648Z,-1.58
2023-02-14T01:19:30.917Z,-1.52
2023-02-14T01:22:04.395Z,-1.70
2023-02-14T01:24:38.168Z,-1.65
2023-02-14T01:27:11.375Z,-1.50
2023-02-14T01:29:45.916Z,-1.49
2023-02-14T01:32:19.146Z,-1.75
2023-02-14T01:34:52.407Z,-1.78
2023-02-14T01:37:25.453Z,-1.80
2023-02-14T01:39:59.172Z,-1.90
2023-02-14T01:42:34.604Z,-1.92
2023-02-14T01:45:16.043Z,-2.01
2023-02-14T01:47:52.509Z,-2.01
2023-02-14T01:50:30.074Z,-2.09
2023-02-14T01:53:07.123Z,-2.24
2023-02-14T01:55:45.344Z,-2.14
2023-02-14T01:58:22.562Z,-2.08
2023-02-14T02:01:00.817Z,-2.21
2023-02-14T02:03:38.744Z,-2.16
2023-02-14T02:06:16.723Z,-2.08
2023-02-14T02:08:59.078Z,-1.96
2023-02-14T02:11:35.333Z,-1.87
2023-02-14T02:14:14.620Z,-2.18
2023-02-14T02:17:18.824Z,-2.38
2023-02-14T02:20:44.061Z,-2.25
2023-02-14T02:23:47.427Z,-2.34
2023-02-14T02:26:52.313Z,-2.32
2023-02-14T02:30:02.486Z,-2.17
2023-02-14T02:33:14.156Z,-2.35
2023-02-14T02:36:08.819Z,-2.17
2023-02-14T02:38:56.452Z,-2.28
2023-02-14T02:41:40.278Z,-2.33
2023-02-14T02:44:18.988Z,-2.28
2023-02-14T02:47:03.918Z,-2.45
2023-02-14T02:50:12.300Z,-2.46
2023-02-14T02:53:04.506Z,-2.37
2023-02-14T02:56:01.852Z,-2.37
2023-02-14T02:58:40.124Z,-2.43
2023-02-14T03:01:17.845Z,-2.39
2023-02-14T03:04:14.371Z,-2.77
2023-02-14T03:06:48.606Z,-2.60
2023-02-14T03:09:54.211Z,-2.67
2023-02-14T03:13:09.412Z,-2.54
2023-02-14T03:15:55.147Z,-2.60
2023-02-14T03:18:40.773Z,-2.70
2023-02-14T03:21:23.385Z,-2.64
2023-02-14T03:24:04.383Z,-2.63
2023-02-14T03:26:49.524Z,-2.67
2023-02-14T03:29:38.288Z,-2.73
2023-02-14T03:32:17.092Z,-2.77
2023-02-14T03:34:58.982Z,-2.73
2023-02-14T03:37:38.093Z,-2.83
2023-02-14T03:40:15.434Z,-2.95
2023-02-14T03:42:54.295Z,-2.84
2023-02-14T03:45:33.835Z,-2.76
2023-02-14T03:48:10.257Z,-2.89
2023-02-14T03:50:47.008Z,-2.77
2023-02-14T03:53:24.144Z,-2.88
2023-02-14T03:56:04.730Z,-2.82
2023-02-14T03:58:43.860Z,-2.87
2023-02-14T04:01:24.436Z,-2.82
2023-02-14T04:03:58.890Z,-2.85
2023-02-14T04:06:32.142Z,-2.82
2023-02-14T04:09:06.316Z,-2.80
2023-02-14T04:11:39.817Z,-2.78
2023-02-14T04:14:14.774Z,-2.91
2023-02-14T04:17:06.158Z,-2.82
2023-02-14T04:19:39.347Z,-2.75
2023-02-14T04:22:12.541Z,-2.85
2023-02-14T04:24:46.198Z,-2.66
2023-02-14T04:27:19.935Z,-2.88
2023-02-14T04:29:54.753Z,-2.77
2023-02-14T04:32:28.867Z,-3.01
2023-02-14T04:35:02.190Z,-3.05
2023-02-14T04:37:35.581Z,-2.92
2023-02-14T04:40:09.484Z,-3.32
2023-02-14T04:42:42.986Z,-2.85
2023-02-14T04:45:17.829Z,-3.23
2023-02-14T04:47:51.243Z,-2.77
2023-02-14T04:50:25.954Z,-2.69
2023-02-14T04:52:59.365Z,-2.80
2023-02-14T04:55:32.607Z,-2.83
2023-02-14T04:58:06.413Z,-2.94
2023-02-14T05:00:41.305Z,-2.71
2023-02-14T05:03:14.779Z,-2.66
2023-02-14T05:05:47.945Z,-2.77
2023-02-14T05:08:21.481Z,-3.08
2023-02-14T05:10:55.741Z,-2.93
2023-02-14T05:13:29.996Z,-2.84
2023-02-14T05:16:05.730Z,-2.71
2023-02-14T05:18:38.938Z,-2.72
2023-02-14T05:21:12.349Z,-3.07
2023-02-14T05:23:46.715Z,-3.06
2023-02-14T05:26:20.194Z,-3.07
2023-02-14T05:28:53.912Z,-2.83
2023-02-14T05:31:30.553Z,-3.11
2023-02-14T05:34:03.967Z,-3.10
2023-02-14T05:36:37.096Z,-3.07
2023-02-14T05:39:10.887Z,-2.88
2023-02-14T05:41:45.034Z,-3.00
2023-02-14T05:44:18.710Z,-3.02
2023-02-14T05:46:54.950Z,-2.99
2023-02-14T05:49:28.289Z,-2.75
2023-02-14T05:52:01.461Z,-2.75
2023-02-14T05:54:35.867Z,-2.77
2023-02-14T05:57:09.081Z,-2.77
2023-02-14T05:59:42.788Z,-2.66
2023-02-14T06:02:17.771Z,-2.49
2023-02-14T06:04:51.222Z,-2.59
2023-02-14T06:07:24.539Z,-2.81
2023-02-14T06:09:57.902Z,-2.51
2023-02-14T06:12:31.413Z,-2.38
2023-02-14T06:15:05.482Z,-2.20
2023-02-14T06:17:40.840Z,-2.09
2023-02-14T06:20:14.554Z,-2.02
2023-02-14T06:22:47.757Z,-2.02
2023-02-14T06:25:21.515Z,-1.94
2023-02-14T06:27:57.213Z,-1.87
2023-02-14T06:30:31.517Z,-1.88
2023-02-14T06:33:06.710Z,-1.83
2023-02-14T06:35:40.243Z,-1.95
2023-02-14T06:38:13.568Z,-1.99
2023-02-14T06:40:46.932Z,-1.80
2023-02-14T06:43:20.188Z,-1.67
2023-02-14T06:45:53.420Z,-1.90
2023-02-14T06:48:28.326Z,-1.65
2023-02-14T06:51:02.259Z,-1.61
2023-02-14T06:53:36.112Z,-1.38
2023-02-14T06:56:09.647Z,-1.35
2023-02-14T06:58:43.206Z,-1.20
2023-02-14T07:01:16.544Z,-1.30
2023-02-14T07:03:51.070Z,-1.08
2023-02-14T07:06:24.760Z,-1.09
2023-02-14T07:08:58.073Z,-0.95
2023-02-14T07:11:31.595Z,-0.83
2023-02-14T07:14:05.282Z,-0.76
2023-02-14T07:16:38.641Z,-0.69
2023-02-14T07:19:14.309Z,-0.68
2023-02-14T07:21:47.762Z,-0.59
2023-02-14T07:24:21.327Z,-0.55
2023-02-14T07:26:54.445Z,-0.46
2023-02-14T07:29:27.988Z,-0.37
2023-02-14T07:32:01.671Z,-0.27
2023-02-14T07:34:36.842Z,-0.19
2023-02-14T07:37:10.125Z,-0.08
2023-02-14T07:39:44.273Z,0.07
2023-02-14T07:42:17.834Z,0.21
2023-02-14T07:44:51.065Z,0.31
2023-02-14T07:47:25.177Z,0.46
2023-02-14T07:49:59.894Z,0.58
2023-02-14T07:52:33.119Z,0.43
2023-02-14T07:55:07.618Z,0.90
2023-02-14T07:57:41.319Z,1.06
2023-02-14T08:00:15.491Z,1.24
2023-02-14T08:02:50.059Z,1.40
2023-02-14T08:05:24.785Z,1.98
2023-02-14T08:07:58.093Z,2.39
2023-02-14T08:10:31.456Z,2.76
2023-02-14T08:13:05.864Z,3.04
2023-02-14T08:15:56.857Z,3.26
2023-02-14T08:18:30.372Z,3.34
2023-02-14T08:21:05.984Z,3.42
2023-02-14T08:23:41.534Z,3.65
2023-02-14T08:26:14.904Z,3.76
2023-02-14T08:28:48.129Z,3.79
2023-02-14T08:31:35.071Z,3.88
2023-02-14T08:34:09.580Z,3.83
2023-02-14T08:36:44.709Z,3.90
2023-02-14T08:39:17.912Z,4.03
2023-02-14T08:41:51.218Z,3.93
2023-02-14T08:44:24.572Z,4.08
2023-02-14T08:46:58.116Z,4.20
2023-02-14T08:49:31.503Z,4.24
2023-02-14T08:52:06.546Z,4.39
2023-02-14T08:54:39.755Z,4.48
2023-02-14T08:57:12.970Z,4.53
2023-02-14T08:59:46.452Z,4.49
2023-02-14T09:02:19.816Z,4.59
2023-02-14T09:04:53.514Z,4.60
2023-02-14T09:07:28.522Z,4.62
2023-02-14T09:10:01.687Z,4.79
2023-02-14T09:12:35.850Z,4.88
2023-02-14T09:15:11.172Z,4.93
2023-02-14T09:17:45.123Z,5.05
2023-02-14T09:20:18.684Z,5.06
2023-02-14T09:22:56.567Z,5.10
2023-02-14T09:25:30.092Z,5.26
2023-02-14T09:28:03.395Z,5.21
2023-02-14T09:30:36.659Z,5.38
2023-02-14T09:33:11.398Z,5.51
2023-02-14T09:36:02.811Z,5.52
2023-02-14T09:38:37.606Z,5.62
2023-02-14T09:41:34.874Z,5.75
2023-02-14T09:44:13.810Z,5.67
2023-02-14T09:46:53.206Z,5.79
2023-02-14T09:49:32.952Z,5.80
2023-02-14T09:52:08.578Z,5.79
2023-02-14T09:54:46.433Z,5.87
2023-02-14T09:57:27.685Z,5.80
2023-02-14T10:00:12.659Z,5.97
2023-02-14T10:02:58.436Z,6.03
2023-02-14T10:05:37.048Z,5.90
2023-02-14T10:08:26.613Z,6.01
2023-02-14T10:11:07.252Z,5.96
2023-02-14T10:13:44.437Z,6.10
2023-02-14T10:16:26.780Z,6.13
2023-02-14T10:19:03.490Z,6.26
2023-02-14T10:21:41.495Z,6.15
2023-02-14T10:24:19.976Z,6.41
2023-02-14T10:26:59.542Z,6.45
2023-02-14T10:29:32.768Z,6.52
2023-02-14T10:32:15.153Z,6.51
2023-02-14T10:34:50.429Z,6.39
2023-02-14T10:37:37.288Z,6.35
2023-02-14T10:40:42.906Z,6.55
2023-02-14T10:43:29.680Z,6.72
2023-02-14T10:46:13.584Z,6.88
2023-02-14T10:48:57.857Z,6.70
2023-02-14T10:51:38.600Z,6.77
2023-02-14T10:54:20.700Z,6.87
2023-02-14T10:57:00.291Z,6.79
2023-02-14T10:59:44.033Z,6.87
2023-02-14T11:02:19.728Z,6.90
2023-02-14T11:04:53.984Z,6.88
2023-02-14T11:07:27.273Z,7.09
2023-02-14T11:10:00.857Z,7.01
2023-02-14T11:12:38.317Z,7.02
2023-02-14T11:15:23.625Z,6.98
2023-02-14T11:18:18.106Z,7.15
2023-02-14T11:21:02.387Z,7.22
2023-02-14T11:23:38.822Z,7.32
2023-02-14T11:26:18.604Z,7.27
2023-02-14T11:28:56.848Z,7.22
2023-02-14T11:31:34.776Z,7.27
2023-02-14T11:34:25.094Z,7.26
2023-02-14T11:36:58.652Z,7.25
2023-02-14T11:39:33.057Z,7.21
2023-02-14T11:42:07.090Z,7.19
2023-02-14T11:44:54.559Z,7.21
2023-02-14T11:47:31.192Z,7.26
2023-02-14T11:50:12.798Z,7.18
2023-02-14T11:52:52.157Z,7.27
2023-02-14T11:55:28.743Z,7.18
2023-02-14T11:58:05.515Z,7.37
2023-02-14T12:00:38.863Z,7.35
2023-02-14T12:03:20.251Z,7.46
2023-02-14T12:05:57.552Z,7.30
2023-02-14T12:08:33.346Z,7.57
2023-02-14T12:11:18.909Z,7.59
2023-02-14T12:13:55.073Z,7.56
2023-02-14T12:16:35.300Z,7.68
2023-02-14T12:19:18.259Z,7.72
2023-02-14T12:21:54.682Z,7.31
2023-02-14T12:24:34.612Z,7.79
2023-02-14T12:27:21.370Z,7.80
2023-02-14T12:30:00.907Z,7.78
2023-02-14T12:32:35.482Z,7.85
2023-02-14T12:35:17.331Z,7.87
2023-02-14T12:38:06.877Z,7.67
2023-02-14T12:40:52.307Z,7.86
2023-02-14T12:43:45.744Z,7.55
2023-02-14T12:46:56.572Z,8.00
2023-02-14T12:50:02.167Z,8.00
2023-02-14T12:52:49.510Z,7.95
2023-02-14T12:55:42.254Z,8.02
2023-02-14T12:58:30.169Z,7.91
2023-02-14T13:01:28.476Z,7.80
2023-02-14T13:04:43.404Z,7.89
2023-02-14T13:07:27.183Z,7.62
2023-02-14T13:10:10.151Z,7.86
2023-02-14T13:12:52.997Z,7.80
2023-02-14T13:15:35.681Z,7.97
2023-02-14T13:18:15.484Z,7.77
2023-02-14T13:20:53.234Z,7.75
2023-02-14T13:23:31.630Z,7.70
2023-02-14T13:26:12.575Z,7.89
2023-02-14T13:28:51.943Z,7.93
2023-02-14T13:31:25.837Z,7.97
2023-02-14T13:34:08.067Z,8.10
2023-02-14T13:36:42.462Z,7.87
2023-02-14T13:39:26.191Z,7.87
2023-02-14T13:42:01.310Z,7.95
2023-02-14T13:44:44.657Z,7.98
2023-02-14T13:47:20.907Z,7.75
2023-02-14T13:49:57.691Z,7.65
2023-02-14T13:52:42.481Z,7.72
2023-02-14T13:55:20.301Z,7.71
2023-02-14T13:58:05.333Z,7.69
2023-02-14T14:00:43.975Z,7.72
2023-02-14T14:03:57.571Z,7.89
2023-02-14T14:06:31.563Z,7.69
2023-02-14T14:09:04.649Z,7.54
2023-02-14T14:12:01.909Z,7.42
2023-02-14T14:14:39.997Z,7.50
2023-02-14T14:17:26.202Z,7.31
2023-02-14T14:20:01.127Z,7.24
2023-02-14T14:22:48.318Z,7.27
2023-02-14T14:25:32.535Z,7.14
2023-02-14T14:28:12.090Z,7.11
2023-02-14T14:30:47.128Z,7.11
2023-02-14T14:33:27.471Z,7.03
2023-02-14T14:36:04.090Z,7.02
2023-02-14T14:38:49.515Z,6.92
2023-02-14T14:41:29.245Z,6.88
2023-02-14T14:44:03.322Z,6.70
2023-02-14T14:46:38.473Z,6.78
2023-02-14T14:49:13.795Z,6.78
2023-02-14T14:51:47.225Z,6.82
2023-02-14T14:54:25.087Z,6.86
2023-02-14T14:57:01.742Z,6.97
2023-02-14T14:59:37.412Z,7.01
2023-02-14T15:02:24.597Z,7.05
2023-02-14T15:04:57.753Z,7.04
2023-02-14T15:07:35.268Z,6.85
2023-02-14T15:10:23.434Z,7.02
2023-02-14T15:13:17.813Z,6.94
2023-02-14T15:15:52.856Z,7.02
2023-02-14T15:18:29.428Z,6.94
2023-02-14T15:21:04.702Z,7.06
2023-02-14T15:23:38.049Z,6.94
2023-02-14T15:26:18.928Z,6.94
2023-02-14T15:28:57.606Z,6.87
2023-02-14T15:31:33.235Z,6.82
2023-02-14T15:34:09.911Z,6.78
2023-02-14T15:36:54.047Z,6.85
2023-02-14T15:39:31.801Z,6.73
2023-02-14T15:42:06.205Z,6.63
2023-02-14T15:44:40.346Z,6.48
2023-02-14T15:47:15.915Z,6.58
2023-02-14T15:49:50.979Z,6.54
2023-02-14T15:52:24.265Z,6.42
2023-02-14T15:54:57.755Z,6.33
2023-02-14T15:57:33.118Z,6.36
2023-02-14T16:00:12.657Z,6.30
2023-02-14T16:02:49.046Z,6.28
2023-02-14T16:05:25.864Z,5.85
2023-02-14T16:08:01.324Z,6.11
2023-02-14T16:10:36.409Z,6.14
2023-02-14T16:13:21.992Z,6.13
2023-02-14T16:16:00.583Z,6.08
2023-02-14T16:18:37.686Z,6.13
2023-02-14T16:21:15.522Z,6.03
2023-02-14T16:24:10.842Z,5.93
2023-02-14T16:26:45.955Z,5.99
2023-02-14T16:29:21.095Z,5.86
2023-02-14T16:32:14.792Z,5.75
2023-02-14T16:34:50.266Z,5.78
2023-02-14T16:37:27.168Z,5.79
2023-02-14T16:40:02.470Z,5.77
2023-02-14T16:42:36.992Z,5.77
2023-02-14T16:45:16.448Z,5.64
2023-02-14T16:47:50.495Z,5.65
2023-02-14T16:50:24.175Z,5.60
2023-02-14T16:52:59.531Z,5.50
2023-02-14T16:55:32.946Z,5.47
2023-02-14T16:58:06.176Z,5.44
2023-02-14T17:00:39.939Z,5.33
2023-02-14T17:03:13.089Z,5.24
2023-02-14T17:05:47.216Z,5.20
2023-02-14T17:08:21.845Z,5.12
2023-02-14T17:10:56.728Z,5.10
2023-02-14T17:13:33.579Z,4.88
2023-02-14T17:16:11.762Z,4.93
2023-02-14T17:18:49.697Z,4.87
2023-02-14T17:21:24.265Z,4.84
2023-02-14T17:23:59.040Z,4.82
2023-02-14T17:26:33.891Z,4.81
2023-02-14T17:29:08.017Z,4.76
2023-02-14T17:31:41.654Z,4.78
2023-02-14T17:34:15.682Z,4.73
2023-02-14T17:36:48.941Z,4.68
2023-02-14T17:39:23.894Z,4.61
2023-02-14T17:41:57.712Z,4.65
2023-02-14T17:44:34.483Z,4.61
2023-02-14T17:47:08.501Z,4.56
2023-02-14T17:49:41.908Z,4.61
2023-02-14T17:52:15.804Z,4.57
2023-02-14T17:54:50.104Z,4.56
2023-02-14T17:57:23.404Z,4.32
2023-02-14T17:59:58.177Z,4.46
2023-02-14T18:02:31.866Z,4.49
2023-02-14T18:05:07.864Z,4.40
2023-02-14T18:07:41.060Z,4.46
2023-02-14T18:10:15.632Z,4.35
2023-02-14T18:12:49.379Z,4.44
2023-02-14T18:15:22.692Z,4.34
2023-02-14T18:17:56.234Z,4.43
2023-02-14T18:20:29.645Z,4.43
2023-02-14T18:23:07.052Z,4.40
2023-02-14T18:25:41.771Z,4.43
2023-02-14T18:28:15.100Z,4.40
2023-02-14T18:30:48.737Z,4.31
2023-02-14T18:33:24.126Z,4.32
2023-02-14T18:35:58.815Z,4.28
2023-02-14T18:38:32.051Z,4.24
2023-02-14T18:41:09.484Z,4.29
2023-02-14T18:43:42.961Z,4.27
2023-02-14T18:46:18.458Z,4.23
2023-02-14T18:48:52.247Z,3.70
2023-02-14T18:51:27.105Z,4.24
2023-02-14T18:54:04.871Z,4.17
2023-02-14T18:56:40.016Z,4.15
2023-02-14T18:59:14.410Z,4.15
2023-02-14T19:01:47.627Z,4.15
2023-02-14T19:04:21.720Z,4.12
2023-02-14T19:06:55.039Z,4.08
2023-02-14T19:09:29.496Z,4.10
2023-02-14T19:12:05.469Z,4.14
2023-02-14T19:14:39.238Z,4.08
2023-02-14T19:17:13.202Z,4.07
2023-02-14T19:19:47.730Z,4.09
2023-02-14T19:22:21.354Z,4.09
2023-02-14T19:24:54.937Z,4.11
2023-02-14T19:27:30.026Z,4.07
2023-02-14T19:30:03.536Z,4.03
2023-02-14T19:32:36.922Z,4.04
2023-02-14T19:35:10.097Z,4.07
2023-02-14T19:37:43.324Z,4.06
2023-02-14T19:40:16.441Z,4.02
2023-02-14T19:42:51.208Z,4.09
2023-02-14T19:45:25.052Z,3.96
2023-02-14T19:47:59.295Z,3.99
2023-02-14T19:50:33.251Z,3.95
2023-02-14T19:53:06.640Z,3.87
2023-02-14T19:55:40.501Z,3.95
2023-02-14T19:58:15.951Z,3.90
2023-02-14T20:00:58.078Z,3.88
2023-02-14T20:03:33.365Z,3.82
2023-02-14T20:06:06.827Z,3.77
2023-02-14T20:08:40.054Z,3.70
2023-02-14T20:11:25.932Z,3.65
2023-02-14T20:14:01.941Z,3.54
2023-02-14T20:16:36.612Z,3.55
2023-02-14T20:19:12.178Z,3.46
2023-02-14T20:21:47.596Z,3.42
2023-02-14T20:24:23.700Z,3.34
2023-02-14T20:26:57.542Z,3.34
2023-02-14T20:29:32.440Z,3.18
2023-02-14T20:32:06.402Z,3.24
2023-02-14T20:34:40.297Z,3.24
2023-02-14T20:37:13.542Z,3.19
2023-02-14T20:39:46.830Z,3.12
2023-02-14T20:42:20.061Z,3.12
2023-02-14T20:44:54.648Z,3.15
2023-02-14T20:47:28.743Z,3.07
2023-02-14T20:50:02.259Z,3.07
2023-02-14T20:52:37.503Z,3.09
2023-02-14T20:55:10.692Z,3.04
2023-02-14T20:57:43.805Z,3.06
2023-02-14T21:00:20.040Z,2.57
2023-02-14T21:02:53.812Z,3.00
2023-02-14T21:05:27.416Z,3.02
2023-02-14T21:08:00.950Z,2.95
2023-02-14T21:10:34.139Z,2.99
2023-02-14T21:13:08.717Z,3.01
2023-02-14T21:15:44.114Z,2.97
2023-02-14T21:18:17.465Z,3.06
2023-02-14T21:20:51.952Z,3.05
2023-02-14T21:23:25.326Z,3.09
2023-02-14T21:25:58.616Z,3.12
2023-02-14T21:28:32.130Z,3.14
2023-02-14T21:31:08.357Z,3.11
2023-02-14T21:33:41.804Z,3.11
2023-02-14T21:36:17.917Z,3.11
2023-02-14T21:38:52.195Z,2.99
2023-02-14T21:41:27.628Z,3.03
2023-02-14T21:44:02.644Z,3.05
2023-02-14T21:46:41.108Z,3.06
2023-02-14T21:49:32.129Z,3.04
2023-02-14T21:52:05.309Z,3.00
2023-02-14T21:54:38.970Z,3.04
2023-02-14T21:57:12.488Z,3.01
2023-02-14T21:59:45.797Z,2.92
2023-02-14T22:02:20.288Z,2.94
2023-02-14T22:04:53.500Z,2.91
2023-02-14T22:07:29.004Z,2.93
2023-02-14T22:10:02.713Z,2.92
2023-02-14T22:12:40.165Z,2.90
2023-02-14T22:15:13.960Z,2.87
2023-02-14T22:17:48.745Z,2.88
2023-02-14T22:20:22.074Z,2.93
2023-02-14T22:22:55.258Z,2.96
2023-02-14T22:25:28.626Z,2.94
2023-02-14T22:28:02.253Z,2.94
2023-02-14T22:30:35.831Z,2.93
2023-02-14T22:33:10.382Z,2.94
2023-02-14T22:35:43.695Z,2.89
2023-02-14T22:38:16.789Z,2.88
2023-02-14T22:40:50.077Z,2.88
2023-02-14T22:43:24.043Z,2.83
2023-02-14T22:45:57.637Z,2.79
2023-02-14T22:48:33.624Z,2.79
2023-02-14T22:51:12.838Z,2.80
2023-02-14T22:53:46.222Z,2.65
2023-02-14T22:56:22.156Z,2.71
2023-02-14T22:58:56.409Z,2.73
2023-02-14T23:01:29.866Z,2.70
2023-02-14T23:04:05.329Z,2.61
2023-02-14T23:06:38.959Z,2.51
2023-02-14T23:09:13.228Z,2.60
2023-02-14T23:11:48.885Z,2.47
2023-02-14T23:14:40.172Z,2.58
2023-02-14T23:17:33.979Z,2.54
2023-02-14T23:20:28.044Z,2.49
2023-02-14T23:23:01.640Z,2.49
2023-02-14T23:25:34.850Z,2.48
2023-02-14T23:28:07.894Z,2.49
2023-02-14T23:30:41.421Z,2.48
2023-02-14T23:33:15.141Z,2.43
2023-02-14T23:35:49.733Z,2.42
2023-02-14T23:38:23.387Z,2.47
2023-02-14T23:41:14.301Z,2.43
2023-02-14T23:43:49.931Z,2.44
2023-02-14T23:46:23.348Z,2.39
2023-02-14T23:48:56.868Z,2.38
2023-02-14T23:51:31.906Z,2.32
2023-02-14T23:54:05.288Z,2.31
2023-02-14T23:56:39.648Z,2.31
2023-02-14T23:59:14.517Z,2.20
